createdAt,value
2018-12-17T00:00:29.390Z,163.68
2018-12-17T00:01:05.970Z,175.72
2018-12-17T00:01:40.512Z,184.45
2018-12-17T00:02:15.470Z,183.10
2018-12-17T00:02:50.230Z,177.72
2018-12-17T00:03:24.938Z,170.72
2018-12-17T00:03:59.591Z,164.95
2018-12-17T00:04:34.691Z,168.80
2018-12-17T00:05:09.413Z,182.15
2018-12-17T00:05:44.171Z,177.43
2018-12-17T00:06:18.850Z,185.78
2018-12-17T00:06:53.491Z,171.40
2018-12-17T00:07:28.130Z,166.12
2018-12-17T00:08:02.650Z,160.07
2018-12-17T00:08:37.350Z,173.43
2018-12-17T00:09:11.990Z,166.10
2018-12-17T00:09:46.771Z,167.40
2018-12-17T00:10:21.411Z,175.95
2018-12-17T00:10:56.051Z,170.17
2018-12-17T00:11:30.651Z,176.18
2018-12-17T00:12:05.470Z,168.50
2018-12-17T00:12:39.930Z,180.25
2018-12-17T00:13:14.579Z,163.10
2018-12-17T00:13:49.110Z,190.10
2018-12-17T00:14:23.710Z,212.65
2018-12-17T00:14:58.331Z,212.50
2018-12-17T00:15:33.092Z,219.15
2018-12-17T00:16:07.910Z,217.28
2018-12-17T00:16:42.610Z,200.10
2018-12-17T00:17:17.153Z,202.30
2018-12-17T00:17:51.870Z,192.72
2018-12-17T00:18:26.491Z,172.13
2018-12-17T00:19:01.201Z,197.20
2018-12-17T00:19:35.871Z,210.10
2018-12-17T00:20:10.992Z,210.45
2018-12-17T00:20:45.731Z,198.28
2018-12-17T00:21:20.534Z,192.60
2018-12-17T00:21:55.331Z,187.35
2018-12-17T00:22:29.851Z,202.00
2018-12-17T00:23:04.492Z,196.45
2018-12-17T00:23:39.131Z,197.70
2018-12-17T00:24:13.911Z,211.62
2018-12-17T00:24:48.470Z,202.85
2018-12-17T00:25:23.271Z,201.58
2018-12-17T00:25:57.911Z,181.18
2018-12-17T00:26:32.531Z,194.13
2018-12-17T00:27:07.171Z,236.62
2018-12-17T00:27:41.791Z,208.68
2018-12-17T00:28:16.391Z,201.35
2018-12-17T00:28:50.991Z,215.65
2018-12-17T00:29:25.579Z,214.82
2018-12-17T00:30:00.271Z,212.10
2018-12-17T00:30:34.891Z,218.52
2018-12-17T00:31:09.591Z,222.48
2018-12-17T00:31:44.119Z,223.72
2018-12-17T00:32:18.712Z,233.50
2018-12-17T00:32:53.219Z,224.88
2018-12-17T00:33:27.691Z,213.62
2018-12-17T00:34:02.292Z,220.22
2018-12-17T00:34:36.971Z,207.00
2018-12-17T00:35:11.571Z,204.55
2018-12-17T00:35:46.123Z,217.50
2018-12-17T00:36:20.831Z,230.65
2018-12-17T00:36:55.499Z,229.75
2018-12-17T00:37:30.111Z,210.97
2018-12-17T00:38:04.634Z,236.07
2018-12-17T00:38:39.231Z,224.75
2018-12-17T00:39:13.832Z,237.70
2018-12-17T00:39:48.631Z,228.83
2018-12-17T00:40:22.892Z,242.87
2018-12-17T00:40:57.551Z,230.37
2018-12-17T00:41:32.211Z,219.97
2018-12-17T00:42:06.760Z,226.60
2018-12-17T00:42:41.451Z,231.25
2018-12-17T00:43:15.992Z,241.82
2018-12-17T00:43:50.791Z,226.50
2018-12-17T00:44:25.439Z,219.80
2018-12-17T00:45:00.031Z,218.67
2018-12-17T00:45:41.112Z,229.80
2018-12-17T00:46:15.751Z,240.50
2018-12-17T00:46:50.433Z,235.70
2018-12-17T00:47:25.051Z,218.90
2018-12-17T00:47:59.832Z,223.60
2018-12-17T00:48:34.433Z,229.68
2018-12-17T00:49:09.111Z,223.40
2018-12-17T00:49:43.711Z,220.12
2018-12-17T00:50:18.412Z,199.17
2018-12-17T00:50:53.031Z,188.70
2018-12-17T00:51:27.771Z,205.75
2018-12-17T00:52:02.559Z,220.75
2018-12-17T00:52:37.252Z,233.80
2018-12-17T00:53:11.871Z,241.00
2018-12-17T00:53:46.432Z,227.93
2018-12-17T00:54:21.031Z,229.55
2018-12-17T00:54:55.632Z,216.00
2018-12-17T00:55:30.412Z,222.75
2018-12-17T00:56:05.111Z,219.22
2018-12-17T00:56:39.760Z,217.68
2018-12-17T00:57:14.571Z,212.50
2018-12-17T00:57:49.293Z,208.05
2018-12-17T00:58:23.891Z,215.95
2018-12-17T00:58:58.491Z,223.97
2018-12-17T00:59:33.052Z,225.03
2018-12-17T01:00:09.972Z,226.18
2018-12-17T01:00:44.551Z,205.95
2018-12-17T01:01:19.212Z,202.13
2018-12-17T01:01:53.832Z,207.32
2018-12-17T01:02:28.571Z,216.12
2018-12-17T01:03:03.211Z,204.13
2018-12-17T01:03:37.771Z,216.27
2018-12-17T01:04:12.572Z,212.80
2018-12-17T01:04:47.279Z,197.20
2018-12-17T01:05:21.943Z,211.60
2018-12-17T01:05:56.600Z,215.92
2018-12-17T01:06:31.212Z,218.48
2018-12-17T01:07:05.771Z,223.93
2018-12-17T01:07:40.511Z,226.80
2018-12-17T01:08:15.051Z,238.37
2018-12-17T01:08:49.739Z,282.98
2018-12-17T01:09:24.292Z,289.35
2018-12-17T01:09:58.931Z,313.37
2018-12-17T01:10:33.732Z,310.15
2018-12-17T01:11:08.293Z,307.10
2018-12-17T01:11:42.931Z,308.63
2018-12-17T01:12:17.552Z,303.40
2018-12-17T01:12:58.379Z,290.18
2018-12-17T01:13:33.032Z,280.32
2018-12-17T01:14:07.631Z,295.23
2018-12-17T01:14:42.233Z,289.57
2018-12-17T01:15:16.772Z,278.65
2018-12-17T01:15:51.392Z,284.52
2018-12-17T01:16:26.578Z,280.67
2018-12-17T01:17:01.391Z,268.50
2018-12-17T01:17:36.051Z,268.55
2018-12-17T01:18:10.819Z,261.95
2018-12-17T01:18:45.412Z,295.30
2018-12-17T01:19:19.951Z,288.75
2018-12-17T01:19:54.551Z,265.37
2018-12-17T01:20:29.051Z,256.38
2018-12-17T01:21:03.691Z,275.70
2018-12-17T01:21:38.451Z,274.60
2018-12-17T01:22:12.971Z,275.07
2018-12-17T01:22:47.692Z,269.57
2018-12-17T01:23:22.291Z,274.70
2018-12-17T01:23:57.011Z,310.95
2018-12-17T01:24:31.579Z,280.42
2018-12-17T01:25:06.435Z,308.95
2018-12-17T01:25:40.911Z,303.88
2018-12-17T01:26:15.699Z,304.77
2018-12-17T01:26:50.211Z,328.67
2018-12-17T01:27:24.811Z,329.48
2018-12-17T01:27:59.399Z,336.95
2018-12-17T01:28:34.360Z,341.33
2018-12-17T01:29:09.051Z,326.88
2018-12-17T01:29:43.691Z,319.93
2018-12-17T01:30:18.374Z,318.37
2018-12-17T01:30:53.113Z,326.12
2018-12-17T01:31:27.691Z,295.25
2018-12-17T01:32:02.232Z,307.87
2018-12-17T01:32:36.971Z,305.60
2018-12-17T01:33:11.495Z,306.63
2018-12-17T01:33:46.091Z,301.65
2018-12-17T01:34:20.691Z,342.05
2018-12-17T01:34:55.311Z,319.87
2018-12-17T01:35:30.013Z,327.13
2018-12-17T01:36:04.771Z,328.12
2018-12-17T01:36:39.333Z,318.82
2018-12-17T01:37:14.051Z,315.55
2018-12-17T01:37:48.711Z,308.15
2018-12-17T01:38:23.291Z,317.27
2018-12-17T01:38:57.991Z,295.90
2018-12-17T01:39:32.612Z,301.45
2018-12-17T01:40:07.512Z,306.47
2018-12-17T01:40:42.094Z,293.33
2018-12-17T01:41:16.991Z,306.73
2018-12-17T01:41:51.531Z,295.03
2018-12-17T01:42:26.131Z,319.85
2018-12-17T01:43:00.711Z,298.07
2018-12-17T01:43:35.314Z,291.88
2018-12-17T01:44:09.951Z,301.82
2018-12-17T01:44:44.511Z,303.48
2018-12-17T01:45:19.171Z,314.20
2018-12-17T01:45:53.771Z,304.95
2018-12-17T01:46:28.431Z,303.25
2018-12-17T01:47:03.191Z,320.75
2018-12-17T01:47:37.719Z,300.80
2018-12-17T01:48:12.412Z,315.85
2018-12-17T01:48:47.092Z,299.65
2018-12-17T01:49:21.891Z,307.77
2018-12-17T01:49:56.512Z,312.40
2018-12-17T01:50:31.113Z,314.70
2018-12-17T01:51:05.651Z,300.30
2018-12-17T01:51:40.294Z,316.90
2018-12-17T01:52:14.931Z,300.20
2018-12-17T01:52:49.571Z,330.25
2018-12-17T01:53:24.131Z,328.35
2018-12-17T01:53:58.838Z,311.20
2018-12-17T01:54:33.771Z,312.93
2018-12-17T01:55:08.371Z,315.12
2018-12-17T01:55:42.993Z,314.75
2018-12-17T01:56:17.571Z,308.80
2018-12-17T01:56:52.151Z,309.90
2018-12-17T01:57:26.911Z,291.47
2018-12-17T01:58:01.751Z,308.05
2018-12-17T01:58:36.391Z,303.88
2018-12-17T01:59:11.031Z,285.30
2018-12-17T01:59:45.837Z,296.80
2018-12-17T02:00:20.795Z,305.70
2018-12-17T02:00:55.359Z,288.10
2018-12-17T02:01:29.951Z,291.15
2018-12-17T02:02:04.551Z,300.38
2018-12-17T02:02:39.130Z,302.75
2018-12-17T02:03:15.951Z,283.07
2018-12-17T02:03:50.591Z,288.02
2018-12-17T02:04:25.351Z,281.75
2018-12-17T02:04:59.951Z,306.05
2018-12-17T02:05:34.571Z,275.98
2018-12-17T02:06:09.291Z,279.52
2018-12-17T02:06:43.871Z,298.38
2018-12-17T02:07:18.451Z,281.45
2018-12-17T02:07:52.971Z,288.20
2018-12-17T02:08:28.111Z,270.70
2018-12-17T02:09:02.919Z,275.13
2018-12-17T02:09:37.471Z,283.35
2018-12-17T02:10:12.352Z,283.45
2018-12-17T02:10:47.091Z,268.35
2018-12-17T02:11:21.931Z,281.52
2018-12-17T02:11:56.691Z,266.00
2018-12-17T02:12:31.351Z,271.52
2018-12-17T02:13:06.012Z,273.45
2018-12-17T02:13:40.971Z,274.50
2018-12-17T02:14:15.571Z,288.68
2018-12-17T02:14:50.072Z,270.75
2018-12-17T02:15:24.871Z,263.57
2018-12-17T02:15:59.492Z,255.37
2018-12-17T02:16:34.140Z,251.00
2018-12-17T02:17:08.899Z,262.20
2018-12-17T02:17:43.651Z,273.32
2018-12-17T02:18:18.192Z,266.93
2018-12-17T02:18:52.990Z,270.70
2018-12-17T02:19:27.560Z,248.70
2018-12-17T02:20:02.610Z,263.65
2018-12-17T02:20:37.219Z,261.90
2018-12-17T02:21:11.831Z,251.02
2018-12-17T02:21:46.491Z,254.53
2018-12-17T02:22:21.291Z,250.68
2018-12-17T02:22:55.971Z,248.43
2018-12-17T02:23:30.551Z,256.87
2018-12-17T02:24:05.151Z,248.05
2018-12-17T02:24:39.751Z,257.12
2018-12-17T02:25:14.531Z,252.32
2018-12-17T02:25:49.192Z,237.20
2018-12-17T02:26:23.731Z,239.23
2018-12-17T02:26:58.471Z,250.90
2018-12-17T02:27:33.013Z,244.80
2018-12-17T02:28:07.692Z,255.40
2018-12-17T02:28:42.431Z,239.40
2018-12-17T02:29:17.052Z,241.20
2018-12-17T02:29:51.811Z,253.73
2018-12-17T02:30:26.461Z,245.00
2018-12-17T02:31:07.471Z,248.30
2018-12-17T02:31:42.013Z,248.72
2018-12-17T02:32:16.611Z,241.05
2018-12-17T02:32:51.242Z,232.57
2018-12-17T02:33:25.931Z,244.32
2018-12-17T02:34:00.594Z,243.52
2018-12-17T02:34:35.261Z,263.77
2018-12-17T02:35:09.851Z,259.35
2018-12-17T02:35:44.391Z,263.35
2018-12-17T02:36:19.299Z,241.55
2018-12-17T02:36:53.831Z,258.17
2018-12-17T02:37:28.410Z,251.95
2018-12-17T02:38:03.051Z,267.68
2018-12-17T02:38:37.651Z,260.55
2018-12-17T02:39:12.170Z,257.07
2018-12-17T02:39:46.671Z,270.80
2018-12-17T02:40:21.311Z,259.95
2018-12-17T02:40:55.911Z,271.32
2018-12-17T02:41:30.751Z,287.17
2018-12-17T02:42:05.412Z,281.57
2018-12-17T02:42:40.051Z,278.37
2018-12-17T02:43:14.991Z,256.75
2018-12-17T02:43:49.790Z,235.30
2018-12-17T02:44:24.531Z,236.57
2018-12-17T02:44:59.031Z,249.80
2018-12-17T02:45:33.612Z,266.27
2018-12-17T02:46:08.311Z,255.47
2018-12-17T02:46:43.112Z,277.77
2018-12-17T02:47:17.620Z,264.57
2018-12-17T02:47:52.212Z,263.95
2018-12-17T02:48:26.911Z,276.18
2018-12-17T02:49:01.570Z,261.70
2018-12-17T02:49:36.171Z,260.77
2018-12-17T02:50:10.810Z,265.25
2018-12-17T02:50:45.571Z,273.57
2018-12-17T02:51:20.196Z,253.58
2018-12-17T02:51:54.836Z,249.67
2018-12-17T02:52:29.330Z,240.43
2018-12-17T02:53:04.026Z,238.20
2018-12-17T02:53:38.750Z,242.30
2018-12-17T02:54:13.291Z,262.52
2018-12-17T02:54:47.832Z,265.32
2018-12-17T02:55:22.458Z,256.23
2018-12-17T02:55:56.950Z,253.73
2018-12-17T02:56:31.558Z,254.87
2018-12-17T02:57:06.232Z,247.02
2018-12-17T02:57:40.815Z,248.60
2018-12-17T02:58:15.492Z,245.60
2018-12-17T02:58:50.130Z,244.03
2018-12-17T02:59:24.810Z,235.90
2018-12-17T02:59:59.570Z,242.97
2018-12-17T03:00:34.796Z,244.50
2018-12-17T03:01:09.432Z,235.95
2018-12-17T03:01:44.039Z,232.03
2018-12-17T03:02:18.671Z,240.57
2018-12-17T03:02:53.151Z,247.02
2018-12-17T03:03:27.711Z,231.38
2018-12-17T03:04:02.270Z,235.63
2018-12-17T03:04:36.870Z,233.68
2018-12-17T03:05:11.530Z,235.20
2018-12-17T03:05:46.150Z,232.85
2018-12-17T03:06:20.690Z,205.35
2018-12-17T03:06:55.410Z,224.45
2018-12-17T03:07:30.130Z,219.50
2018-12-17T03:08:04.730Z,206.35
2018-12-17T03:08:39.330Z,209.90
2018-12-17T03:09:13.951Z,211.40
2018-12-17T03:09:48.590Z,200.18
2018-12-17T03:10:23.311Z,202.62
2018-12-17T03:10:57.898Z,224.45
2018-12-17T03:11:32.631Z,203.42
2018-12-17T03:12:07.311Z,206.02
2018-12-17T03:12:42.054Z,202.80
2018-12-17T03:13:16.670Z,214.65
2018-12-17T03:13:51.270Z,207.40
2018-12-17T03:14:25.793Z,195.70
2018-12-17T03:15:00.373Z,215.05
2018-12-17T03:15:34.953Z,209.35
2018-12-17T03:16:09.571Z,201.75
2018-12-17T03:16:44.131Z,198.13
2018-12-17T03:17:18.838Z,212.45
2018-12-17T03:17:53.470Z,206.63
2018-12-17T03:18:28.073Z,211.43
2018-12-17T03:19:02.610Z,201.37
2018-12-17T03:19:37.371Z,209.35
2018-12-17T03:20:12.012Z,206.23
2018-12-17T03:20:46.685Z,198.95
2018-12-17T03:21:21.359Z,190.97
2018-12-17T03:21:55.972Z,202.87
2018-12-17T03:22:30.511Z,202.10
2018-12-17T03:23:05.170Z,204.00
2018-12-17T03:23:39.710Z,216.10
2018-12-17T03:24:14.472Z,203.55
2018-12-17T03:24:49.030Z,213.00
2018-12-17T03:25:23.758Z,212.80
2018-12-17T03:25:58.498Z,191.35
2018-12-17T03:26:33.111Z,201.30
2018-12-17T03:27:07.590Z,211.20
2018-12-17T03:27:42.196Z,198.80
2018-12-17T03:28:16.872Z,192.95
2018-12-17T03:28:52.097Z,208.13
2018-12-17T03:29:26.811Z,193.35
2018-12-17T03:30:01.391Z,197.00
2018-12-17T03:30:36.112Z,196.40
2018-12-17T03:31:10.672Z,185.30
2018-12-17T03:31:45.492Z,210.32
2018-12-17T03:32:20.212Z,215.25
2018-12-17T03:32:54.903Z,206.93
2018-12-17T03:33:29.612Z,214.17
2018-12-17T03:34:04.212Z,211.52
2018-12-17T03:34:38.691Z,222.63
2018-12-17T03:35:13.390Z,222.15
2018-12-17T03:35:48.011Z,210.32
2018-12-17T03:36:22.691Z,207.60
2018-12-17T03:36:57.211Z,201.62
2018-12-17T03:37:31.831Z,196.20
2018-12-17T03:38:06.439Z,228.25
2018-12-17T03:38:41.114Z,218.30
2018-12-17T03:39:15.792Z,227.50
2018-12-17T03:39:50.510Z,213.28
2018-12-17T03:40:25.150Z,223.05
2018-12-17T03:40:59.772Z,216.45
2018-12-17T03:41:34.211Z,220.20
2018-12-17T03:42:09.111Z,221.00
2018-12-17T03:42:43.751Z,218.55
2018-12-17T03:43:18.377Z,221.55
2018-12-17T03:43:52.971Z,224.73
2018-12-17T03:44:27.551Z,204.28
2018-12-17T03:45:02.250Z,233.80
2018-12-17T03:45:36.859Z,224.62
2018-12-17T03:46:11.331Z,224.22
2018-12-17T03:46:46.078Z,215.92
2018-12-17T03:47:20.631Z,221.82
2018-12-17T03:47:55.211Z,234.07
2018-12-17T03:48:29.752Z,235.97
2018-12-17T03:49:04.417Z,203.88
2018-12-17T03:49:38.971Z,216.90
2018-12-17T03:50:13.551Z,201.58
2018-12-17T03:50:48.072Z,222.67
2018-12-17T03:51:22.631Z,225.57
2018-12-17T03:51:57.232Z,213.65
2018-12-17T03:52:31.751Z,221.97
2018-12-17T03:53:06.377Z,229.85
2018-12-17T03:53:40.951Z,234.05
2018-12-17T03:54:15.871Z,237.17
2018-12-17T03:54:50.472Z,208.17
2018-12-17T03:55:25.114Z,225.40
2018-12-17T03:55:59.751Z,249.82
2018-12-17T03:56:34.351Z,266.82
2018-12-17T03:57:08.967Z,286.00
2018-12-17T03:57:43.666Z,226.82
2018-12-17T03:58:18.214Z,261.65
2018-12-17T03:58:59.049Z,327.05
2018-12-17T03:59:29.555Z,283.45
2018-12-17T04:00:04.806Z,244.82
2018-12-17T04:00:39.467Z,228.90
2018-12-17T04:01:14.214Z,321.95
2018-12-17T04:01:48.646Z,267.05
2018-12-17T04:02:23.247Z,359.55
2018-12-17T04:02:57.907Z,555.22
2018-12-17T04:03:32.526Z,532.58
2018-12-17T04:04:07.086Z,529.65
2018-12-17T04:04:41.767Z,522.17
2018-12-17T04:05:16.406Z,555.42
2018-12-17T04:05:50.967Z,534.25
2018-12-17T04:06:25.593Z,504.95
2018-12-17T04:07:00.146Z,436.47
2018-12-17T04:07:34.766Z,449.25
2018-12-17T04:08:09.366Z,411.68
2018-12-17T04:08:43.846Z,378.37
2018-12-17T04:09:18.506Z,417.12
2018-12-17T04:09:53.306Z,425.02
2018-12-17T04:10:27.946Z,387.23
2018-12-17T04:11:02.546Z,390.48
2018-12-17T04:11:37.246Z,394.57
2018-12-17T04:12:11.765Z,389.12
2018-12-17T04:12:46.712Z,382.32
2018-12-17T04:13:21.468Z,348.70
2018-12-17T04:13:56.189Z,365.57
2018-12-17T04:14:30.888Z,362.20
2018-12-17T04:15:05.625Z,344.73
2018-12-17T04:15:40.452Z,354.05
2018-12-17T04:16:15.027Z,316.40
2018-12-17T04:16:49.635Z,298.32
2018-12-17T04:17:24.224Z,320.82
2018-12-17T04:17:59.023Z,257.15
2018-12-17T04:18:33.903Z,254.45
2018-12-17T04:19:08.423Z,246.68
2018-12-17T04:19:43.063Z,214.60
2018-12-17T04:20:17.844Z,216.95
2018-12-17T04:20:52.343Z,203.52
2018-12-17T04:21:27.004Z,210.95
2018-12-17T04:22:01.663Z,214.08
2018-12-17T04:22:36.212Z,204.57
2018-12-17T04:23:10.844Z,200.87
2018-12-17T04:23:45.444Z,206.20
2018-12-17T04:24:20.005Z,205.83
2018-12-17T04:24:54.693Z,199.80
2018-12-17T04:25:29.365Z,211.75
2018-12-17T04:26:04.084Z,191.05
2018-12-17T04:26:38.631Z,187.37
2018-12-17T04:27:13.144Z,201.15
2018-12-17T04:27:47.624Z,191.20
2018-12-17T04:28:22.406Z,201.07
2018-12-17T04:28:56.991Z,192.75
2018-12-17T04:29:31.605Z,200.90
2018-12-17T04:30:06.631Z,192.50
2018-12-17T04:30:41.303Z,200.68
2018-12-17T04:31:15.845Z,198.43
2018-12-17T04:31:50.447Z,193.68
2018-12-17T04:32:24.963Z,193.32
2018-12-17T04:32:59.584Z,194.00
2018-12-17T04:33:34.304Z,180.37
2018-12-17T04:34:08.945Z,181.97
2018-12-17T04:34:43.543Z,188.47
2018-12-17T04:35:18.164Z,193.05
2018-12-17T04:35:53.044Z,195.70
2018-12-17T04:36:27.604Z,193.93
2018-12-17T04:37:02.252Z,170.72
2018-12-17T04:37:37.084Z,176.00
2018-12-17T04:38:11.943Z,186.18
2018-12-17T04:38:46.724Z,182.82
2018-12-17T04:39:21.327Z,177.27
2018-12-17T04:39:55.946Z,183.62
2018-12-17T04:40:30.568Z,188.07
2018-12-17T04:41:05.151Z,170.38
2018-12-17T04:41:39.766Z,180.65
2018-12-17T04:42:14.452Z,172.62
2018-12-17T04:42:49.204Z,178.15
2018-12-17T04:43:23.691Z,194.90
2018-12-17T04:43:58.405Z,178.15
2018-12-17T04:44:33.044Z,183.97
2018-12-17T04:45:08.187Z,187.90
2018-12-17T04:45:42.843Z,179.10
2018-12-17T04:46:17.563Z,181.65
2018-12-17T04:46:52.310Z,175.12
2018-12-17T04:47:27.055Z,175.25
2018-12-17T04:48:01.744Z,176.78
2018-12-17T04:48:36.283Z,173.28
2018-12-17T04:49:11.025Z,188.50
2018-12-17T04:49:45.724Z,167.25
2018-12-17T04:50:20.506Z,175.47
2018-12-17T04:50:55.045Z,163.40
2018-12-17T04:51:30.026Z,170.10
2018-12-17T04:52:04.564Z,182.50
2018-12-17T04:52:39.164Z,187.57
2018-12-17T04:53:13.863Z,176.10
2018-12-17T04:53:48.352Z,176.82
2018-12-17T04:54:22.844Z,171.47
2018-12-17T04:54:57.432Z,169.62
2018-12-17T04:55:32.224Z,162.62
2018-12-17T04:56:06.846Z,173.70
2018-12-17T04:56:41.513Z,175.75
2018-12-17T04:57:16.084Z,180.63
2018-12-17T04:57:50.884Z,170.05
2018-12-17T04:58:25.443Z,176.30
2018-12-17T04:58:59.945Z,172.60
2018-12-17T04:59:34.444Z,165.62
2018-12-17T05:00:10.224Z,155.12
2018-12-17T05:00:45.004Z,163.57
2018-12-17T05:01:19.624Z,170.85
2018-12-17T05:01:54.344Z,168.75
2018-12-17T05:02:29.044Z,161.07
2018-12-17T05:03:03.585Z,163.07
2018-12-17T05:03:38.163Z,160.70
2018-12-17T05:04:12.804Z,175.75
2018-12-17T05:04:47.424Z,162.65
2018-12-17T05:05:22.044Z,177.85
2018-12-17T05:05:56.684Z,172.10
2018-12-17T05:06:31.272Z,180.87
2018-12-17T05:07:05.926Z,194.77
2018-12-17T05:07:40.504Z,182.43
2018-12-17T05:08:15.210Z,169.65
2018-12-17T05:08:49.823Z,171.07
2018-12-17T05:09:24.608Z,171.40
2018-12-17T05:09:59.185Z,171.13
2018-12-17T05:10:34.323Z,173.45
2018-12-17T05:11:08.943Z,168.52
2018-12-17T05:11:43.684Z,176.10
2018-12-17T05:12:18.385Z,172.20
2018-12-17T05:12:53.025Z,166.05
2018-12-17T05:13:27.607Z,173.70
2018-12-17T05:14:02.383Z,178.35
2018-12-17T05:14:37.004Z,189.62
2018-12-17T05:15:11.648Z,174.12
2018-12-17T05:15:46.351Z,179.45
2018-12-17T05:16:20.952Z,187.68
2018-12-17T05:16:55.504Z,179.05
2018-12-17T05:17:30.386Z,182.57
2018-12-17T05:18:04.964Z,169.75
2018-12-17T05:18:39.624Z,177.68
2018-12-17T05:19:14.284Z,180.07
2018-12-17T05:19:48.924Z,179.72
2018-12-17T05:20:23.583Z,176.72
2018-12-17T05:20:58.345Z,183.50
2018-12-17T05:21:33.083Z,182.45
2018-12-17T05:22:07.704Z,185.78
2018-12-17T05:22:42.403Z,177.95
2018-12-17T05:23:17.065Z,174.75
2018-12-17T05:23:51.824Z,186.43
2018-12-17T05:24:26.414Z,176.60
2018-12-17T05:25:01.164Z,169.97
2018-12-17T05:25:35.743Z,183.22
2018-12-17T05:26:10.208Z,177.90
2018-12-17T05:26:44.944Z,183.68
2018-12-17T05:27:19.607Z,170.17
2018-12-17T05:27:54.266Z,162.88
2018-12-17T05:28:29.004Z,168.37
2018-12-17T05:29:03.610Z,171.85
2018-12-17T05:29:38.123Z,174.30
2018-12-17T05:30:12.903Z,159.95
2018-12-17T05:30:47.664Z,189.67
2018-12-17T05:31:22.363Z,177.82
2018-12-17T05:31:57.013Z,175.27
2018-12-17T05:32:31.552Z,176.12
2018-12-17T05:33:06.443Z,181.97
2018-12-17T05:33:41.124Z,168.00
2018-12-17T05:34:15.706Z,169.35
2018-12-17T05:34:50.386Z,178.30
2018-12-17T05:35:25.165Z,177.70
2018-12-17T05:35:59.963Z,180.00
2018-12-17T05:36:34.610Z,181.10
2018-12-17T05:37:09.408Z,179.47
2018-12-17T05:37:44.066Z,177.22
2018-12-17T05:38:19.154Z,174.18
2018-12-17T05:38:53.878Z,178.47
2018-12-17T05:39:28.451Z,172.28
2018-12-17T05:40:03.053Z,187.95
2018-12-17T05:40:37.792Z,181.25
2018-12-17T05:41:12.293Z,177.50
2018-12-17T05:41:46.951Z,183.00
2018-12-17T05:42:21.535Z,194.93
2018-12-17T05:42:56.132Z,185.20
2018-12-17T05:43:30.751Z,187.80
2018-12-17T05:44:05.391Z,187.20
2018-12-17T05:44:40.051Z,180.57
2018-12-17T05:45:14.698Z,177.02
2018-12-17T05:45:49.271Z,175.95
2018-12-17T05:46:23.770Z,176.97
2018-12-17T05:46:58.470Z,172.78
2018-12-17T05:47:33.111Z,186.67
2018-12-17T05:48:07.691Z,184.30
2018-12-17T05:48:42.279Z,179.05
2018-12-17T05:49:17.210Z,169.80
2018-12-17T05:49:51.971Z,169.90
2018-12-17T05:50:26.651Z,184.22
2018-12-17T05:51:01.251Z,185.52
2018-12-17T05:51:35.930Z,176.22
2018-12-17T05:52:10.687Z,177.17
2018-12-17T05:52:45.467Z,181.63
2018-12-17T05:53:20.147Z,181.87
2018-12-17T05:53:54.828Z,177.55
2018-12-17T05:54:29.447Z,173.95
2018-12-17T05:55:04.237Z,179.18
2018-12-17T05:55:38.776Z,183.95
2018-12-17T05:56:13.427Z,165.12
2018-12-17T05:56:48.067Z,177.45
2018-12-17T05:57:22.807Z,166.28
2018-12-17T05:57:57.535Z,166.47
2018-12-17T05:58:32.187Z,166.00
2018-12-17T05:59:06.926Z,164.60
2018-12-17T05:59:41.546Z,172.87
2018-12-17T06:05:26.606Z,164.67
2018-12-17T06:06:00.966Z,167.10
2018-12-17T06:06:35.526Z,171.87
2018-12-17T06:07:10.126Z,172.65
2018-12-17T06:07:44.727Z,171.65
2018-12-17T06:08:19.287Z,175.80
2018-12-17T06:08:54.066Z,170.30
2018-12-17T06:09:28.686Z,170.20
2018-12-17T06:10:03.286Z,166.35
2018-12-17T06:10:37.926Z,167.43
2018-12-17T06:11:12.685Z,172.50
2018-12-17T06:11:47.265Z,169.57
2018-12-17T06:12:21.865Z,186.80
2018-12-17T06:12:56.466Z,170.57
2018-12-17T06:13:31.145Z,177.62
2018-12-17T06:14:05.705Z,176.87
2018-12-17T06:14:40.466Z,162.88
2018-12-17T06:15:15.025Z,174.27
2018-12-17T06:15:49.867Z,177.47
2018-12-17T06:16:24.545Z,181.40
2018-12-17T06:16:59.165Z,181.25
2018-12-17T06:17:33.766Z,172.43
2018-12-17T06:18:08.346Z,171.02
2018-12-17T06:18:43.046Z,182.12
2018-12-17T06:19:17.685Z,171.82
2018-12-17T06:19:52.206Z,177.70
2018-12-17T06:20:26.758Z,173.07
2018-12-17T06:21:01.670Z,183.25
2018-12-17T06:21:36.385Z,175.78
2018-12-17T06:22:11.065Z,176.63
2018-12-17T06:22:45.986Z,184.90
2018-12-17T06:23:20.626Z,178.00
2018-12-17T06:23:55.225Z,170.20
2018-12-17T06:24:30.207Z,177.17
2018-12-17T06:25:04.807Z,179.72
2018-12-17T06:25:39.354Z,171.28
2018-12-17T06:26:14.148Z,170.87
2018-12-17T06:26:48.806Z,182.45
2018-12-17T06:27:23.394Z,185.67
2018-12-17T06:27:58.045Z,181.57
2018-12-17T06:28:32.866Z,186.47
2018-12-17T06:29:07.609Z,186.22
2018-12-17T06:29:42.253Z,181.95
2018-12-17T06:30:16.785Z,177.02
2018-12-17T06:30:51.466Z,181.40
2018-12-17T06:31:26.009Z,179.97
2018-12-17T06:32:00.618Z,176.15
2018-12-17T06:32:35.186Z,179.63
2018-12-17T06:33:15.521Z,171.72
2018-12-17T06:33:46.425Z,177.68
2018-12-17T06:34:21.016Z,174.62
2018-12-17T06:34:55.726Z,173.70
2018-12-17T06:35:30.488Z,173.65
2018-12-17T06:36:05.099Z,169.68
2018-12-17T06:36:39.805Z,173.78
2018-12-17T06:37:14.346Z,171.22
2018-12-17T06:37:49.094Z,171.57
2018-12-17T06:38:23.685Z,172.40
2018-12-17T06:38:58.345Z,182.45
2018-12-17T06:39:33.365Z,175.10
2018-12-17T06:40:10.388Z,180.72
2018-12-17T06:40:45.130Z,165.12
2018-12-17T06:41:19.914Z,170.05
2018-12-17T06:41:54.553Z,212.32
2018-12-17T06:42:29.233Z,183.22
2018-12-17T06:43:03.774Z,177.60
2018-12-17T06:43:38.354Z,171.22
2018-12-17T06:44:13.013Z,177.25
2018-12-17T06:44:47.735Z,179.07
2018-12-17T06:45:22.335Z,175.60
2018-12-17T06:45:57.056Z,187.05
2018-12-17T06:46:31.647Z,179.03
2018-12-17T06:47:06.447Z,177.32
2018-12-17T06:47:41.227Z,187.53
2018-12-17T06:48:17.249Z,177.25
2018-12-17T06:48:52.067Z,164.50
2018-12-17T06:49:26.676Z,172.13
2018-12-17T06:50:01.368Z,173.43
2018-12-17T06:50:35.988Z,169.93
2018-12-17T06:51:10.999Z,165.45
2018-12-17T06:51:45.791Z,173.75
2018-12-17T06:52:20.571Z,167.77
2018-12-17T06:52:55.151Z,176.20
2018-12-17T06:53:29.611Z,170.75
2018-12-17T06:54:04.212Z,176.68
2018-12-17T06:54:38.831Z,168.13
2018-12-17T06:55:13.474Z,176.65
2018-12-17T06:55:48.154Z,160.63
2018-12-17T06:56:22.774Z,172.95
2018-12-17T06:56:57.533Z,183.45
2018-12-17T06:57:32.277Z,180.42
2018-12-17T06:58:06.872Z,181.02
2018-12-17T06:58:41.672Z,175.12
2018-12-17T06:59:16.244Z,184.52
2018-12-17T06:59:51.025Z,198.25
2018-12-17T07:00:25.743Z,185.95
2018-12-17T07:01:00.344Z,183.52
2018-12-17T07:01:34.906Z,190.07
2018-12-17T07:02:09.723Z,171.55
2018-12-17T07:02:44.419Z,187.55
2018-12-17T07:03:19.123Z,179.20
2018-12-17T07:03:53.704Z,190.97
2018-12-17T07:04:28.408Z,178.07
2018-12-17T07:05:03.144Z,167.55
2018-12-17T07:05:37.866Z,160.18
2018-12-17T07:06:12.344Z,177.43
2018-12-17T07:06:47.203Z,164.57
2018-12-17T07:07:21.764Z,176.32
2018-12-17T07:07:56.483Z,178.62
2018-12-17T07:08:31.083Z,169.53
2018-12-17T07:09:07.263Z,175.55
2018-12-17T07:09:41.884Z,183.47
2018-12-17T07:10:16.484Z,177.47
2018-12-17T07:10:51.043Z,175.30
2018-12-17T07:11:25.806Z,158.10
2018-12-17T07:12:00.452Z,165.75
2018-12-17T07:12:35.010Z,177.17
2018-12-17T07:13:09.669Z,178.38
2018-12-17T07:13:44.250Z,155.12
2018-12-17T07:14:18.790Z,166.20
2018-12-17T07:14:53.409Z,174.72
2018-12-17T07:15:28.010Z,170.40
2018-12-17T07:16:02.612Z,176.02
2018-12-17T07:16:37.130Z,169.95
2018-12-17T07:17:11.757Z,163.80
2018-12-17T07:17:46.486Z,166.05
2018-12-17T07:18:21.154Z,171.20